KMVL/MVL METAR and TAF weather

Enter ICAO airport designator
Station Type Date Time Source
KMVL METAR 2019/12/09 13:54 UTC NOAA

KMVL 091354Z AUTO 00000KT 10SM -RA BKN060 OVC075 01/M01 A3009 RMK AO2 RAB1257E06B47FZRAE1257 SLP201 P0000 I1000 T00061006


Station Type Date Time Source
KMVL Decoded METAR 2019/12/09 13:54 UTC NOAA

MORRISVILLE STOWE STATE AIRPORT , VT, United States (KMVL) 44-32N 72-37W 223M
Dec 09, 2019 - 08:54 AM EST / 2019.12.09 1354 UTC
Wind: Calm:0
Visibility: 10 mile(s):0
Sky conditions: overcast
Weather: light rain
Precipitation last hour: A trace
Temperature: 33.1 F (0.6 C)
Dew Point: 30.9 F (-0.6 C)
Relative Humidity: 91%
Pressure (altimeter): 30.09 in. Hg (1018 hPa)
ob: KMVL 091354Z AUTO 00000KT 10SM -RA BKN060 OVC075 01/M01 A3009 RMK AO2 RAB1257E06B47FZRAE1257 SLP201 P0000 I1000 T00061006
cycle: 14

Station Type Date Time Source
KMVL TAF UTC NOAA

Error!

Example: see airport list